Time;durP1;ratioP1;P1;durP2;ratioP2;P2;SDS_P1;SDS_P2;PMS_P1;PMS_P2;Temp;Humidity;BMP_temperature;BMP_pressure;BME280_temperature;BME280_humidity;BME280_pressure;Samples;Min_cycle;Max_cycle;Signal;HPM_P1;HPM_P2
2023/04/04 00:02:17;;;;;;;5.45;3.15;;;;;;;-0.85;68.71;98037.91;5025367;28;20049;-57
2023/04/04 00:04:43;;;;;;;5.13;2.30;;;;;;;-0.94;68.65;98039.72;5025769;28;20045;-57
2023/04/04 00:07:09;;;;;;;3.90;1.80;;;;;;;-1.01;69.16;98040.50;5026526;28;20040;-56
2023/04/04 00:09:36;;;;;;;5.15;1.63;;;;;;;-1.01;69.41;98032.53;5026934;28;20080;-57
2023/04/04 00:12:03;;;;;;;3.60;1.85;;;;;;;-1.03;70.54;98026.56;5038842;28;20049;-57
2023/04/04 00:14:31;;;;;;;3.58;1.80;;;;;;;-1.11;70.38;98030.03;5037881;28;20049;-57
2023/04/04 00:16:57;;;;;;;3.20;1.58;;;;;;;-1.12;70.74;98031.00;5018474;28;20065;-55
2023/04/04 00:19:24;;;;;;;5.85;1.65;;;;;;;-1.16;71.07;98027.00;5029317;28;20520;-56
2023/04/04 00:21:51;;;;;;;4.68;2.05;;;;;;;-1.20;70.76;98027.34;5019171;28;20549;-56
2023/04/04 00:24:17;;;;;;;4.88;1.88;;;;;;;-1.31;71.67;98020.50;5030738;28;20118;-57
2023/04/04 00:26:44;;;;;;;6.40;2.40;;;;;;;-1.31;71.51;98022.31;5026842;28;20088;-57
2023/04/04 00:29:10;;;;;;;5.10;1.73;;;;;;;-1.33;72.13;98027.78;5027395;28;20049;-56
2023/04/04 00:31:37;;;;;;;4.53;1.50;;;;;;;-1.42;72.28;98023.41;5033893;28;20037;-56
2023/04/04 00:34:04;;;;;;;2.80;1.55;;;;;;;-1.40;73.07;98020.59;5033767;28;20068;-57
2023/04/04 00:36:31;;;;;;;5.30;1.80;;;;;;;-1.49;74.08;98017.06;5041439;28;20094;-54
2023/04/04 00:38:57;;;;;;;4.00;1.63;;;;;;;-1.41;72.82;98011.78;5021493;28;20049;-56
2023/04/04 00:41:24;;;;;;;2.72;1.50;;;;;;;-1.40;72.95;98017.94;5035207;28;20098;-55
2023/04/04 00:43:50;;;;;;;5.63;1.65;;;;;;;-1.47;73.00;98012.44;5024305;28;20045;-55
2023/04/04 00:46:18;;;;;;;2.72;1.75;;;;;;;-1.51;73.08;98005.78;5024511;28;20045;-57
2023/04/04 00:48:46;;;;;;;5.18;1.60;;;;;;;-1.58;73.62;98005.59;5024700;28;20050;-58
2023/04/04 00:51:13;;;;;;;3.75;1.40;;;;;;;-1.88;75.92;98003.25;5020087;28;20045;-57
2023/04/04 00:53:45;;;;;;;3.22;1.58;;;;;;;-1.82;75.11;98001.78;5035263;28;20684;-56
2023/04/04 00:56:12;;;;;;;5.00;2.10;;;;;;;-2.05;76.68;98002.31;5023937;28;20071;-54
2023/04/04 00:58:40;;;;;;;4.85;1.73;;;;;;;-2.37;80.34;98006.38;5034895;28;20053;-56
2023/04/04 01:01:07;;;;;;;3.03;1.50;;;;;;;-2.51;80.28;98007.78;5026083;28;20065;-55
2023/04/04 01:03:34;;;;;;;2.10;1.23;;;;;;;-2.88;82.88;98009.56;5031454;28;20103;-56
2023/04/04 01:06:00;;;;;;;6.30;1.92;;;;;;;-3.05;84.21;98006.75;5024958;28;20417;-56
2023/04/04 01:08:28;;;;;;;5.35;1.90;;;;;;;-3.15;83.66;98003.31;5022937;28;20045;-56
2023/04/04 01:10:55;;;;;;;5.15;1.80;;;;;;;-3.25;84.64;98007.84;5018137;28;20049;-54
2023/04/04 01:13:22;;;;;;;3.28;1.55;;;;;;;-3.40;85.11;98005.69;5019188;28;20037;-56
2023/04/04 01:15:50;;;;;;;7.00;2.00;;;;;;;-3.46;86.29;97999.16;5020119;28;20042;-57
2023/04/04 01:18:21;;;;;;;4.57;2.00;;;;;;;-3.50;87.01;97994.31;5025981;28;20132;-54
2023/04/04 01:21:10;;;;;;;5.13;1.80;;;;;;;-3.50;86.92;97994.31;5023341;28;20047;-56
2023/04/04 01:23:50;;;;;;;2.67;1.50;;;;;;;-3.49;86.75;97993.31;5041786;28;20067;-57
2023/04/04 01:26:20;;;;;;;4.65;1.90;;;;;;;-3.52;87.49;98002.41;5021411;28;20037;-57
2023/04/04 01:28:48;;;;;;;3.67;2.10;;;;;;;-3.53;88.60;98001.56;5022154;28;20077;-57
2023/04/04 01:31:20;;;;;;;2.92;1.75;;;;;;;-3.50;87.36;97999.59;5026383;28;20045;-57
2023/04/04 01:33:57;;;;;;;4.07;1.50;;;;;;;-3.53;87.39;97998.09;5022221;28;20041;-54
2023/04/04 01:36:38;;;;;;;3.10;1.73;;;;;;;-3.56;88.11;98001.88;5016500;28;20050;-55
2023/04/04 01:39:18;;;;;;;4.15;1.60;;;;;;;-3.74;88.58;97998.28;5026186;28;20034;-56
2023/04/04 01:41:47;;;;;;;4.28;1.75;;;;;;;-3.65;89.47;98000.06;5034915;28;20424;-56
2023/04/04 01:44:16;;;;;;;4.40;1.90;;;;;;;-3.83;89.64;97994.72;5028019;28;20048;-56
2023/04/04 01:46:42;;;;;;;3.65;1.98;;;;;;;-3.90;89.96;97994.47;5039434;28;20532;-56
2023/04/04 01:49:10;;;;;;;4.07;1.88;;;;;;;-3.90;89.46;97990.97;5030073;28;20041;-57
2023/04/04 01:51:38;;;;;;;6.90;1.90;;;;;;;-4.09;90.64;97992.72;5032042;28;20044;-54
2023/04/04 01:54:04;;;;;;;3.85;2.08;;;;;;;-4.07;92.11;97990.72;5026198;28;20651;-58
2023/04/04 01:56:31;;;;;;;5.32;2.28;;;;;;;-4.14;91.56;97979.91;5032063;28;20041;-55
2023/04/04 01:58:58;;;;;;;4.82;2.03;;;;;;;-4.11;92.25;97974.31;5027776;28;20174;-57
2023/04/04 02:01:24;;;;;;;6.13;2.25;;;;;;;-4.03;91.87;97980.72;5014744;28;20057;-56
2023/04/04 02:03:51;;;;;;;3.20;1.83;;;;;;;-4.27;92.00;97982.84;5018139;28;20584;-54
2023/04/04 02:06:18;;;;;;;5.97;1.92;;;;;;;-4.33;93.36;97975.47;5020060;28;20048;-57
2023/04/04 02:08:45;;;;;;;4.88;1.80;;;;;;;-4.18;93.05;97983.81;5020267;28;20055;-57
2023/04/04 02:11:11;;;;;;;6.05;1.92;;;;;;;-4.23;92.43;97988.69;5028659;28;20037;-56
2023/04/04 02:13:42;;;;;;;4.18;1.75;;;;;;;-4.26;92.65;97987.16;5029856;28;20052;-55
2023/04/04 02:16:10;;;;;;;5.60;1.80;;;;;;;-4.38;93.51;97985.66;5012515;28;20044;-57
2023/04/04 02:18:37;;;;;;;5.18;2.17;;;;;;;-4.44;92.91;97993.19;5014347;28;20571;-55
2023/04/04 02:21:04;;;;;;;5.88;2.05;;;;;;;-4.42;92.60;97997.47;5026566;28;20037;-55
2023/04/04 02:23:30;;;;;;;4.47;1.85;;;;;;;-4.23;92.58;97991.34;5028258;28;20139;-55
2023/04/04 02:25:57;;;;;;;7.03;2.10;;;;;;;-4.33;92.81;97989.53;5026054;28;20053;-55
2023/04/04 02:28:24;;;;;;;4.43;2.00;;;;;;;-4.42;92.46;97994.84;5032687;28;20075;-57
2023/04/04 02:30:51;;;;;;;3.40;1.83;;;;;;;-4.32;92.63;97991.22;5029735;28;20049;-56
2023/04/04 02:33:17;;;;;;;3.60;1.83;;;;;;;-4.30;93.02;97983.13;5030321;28;20655;-56
2023/04/04 02:35:45;;;;;;;4.25;1.85;;;;;;;-4.43;92.23;97988.72;5032956;28;20053;-54
2023/04/04 02:38:12;;;;;;;6.88;2.33;;;;;;;-4.63;93.23;97982.59;5032040;28;20033;-57
2023/04/04 02:40:47;;;;;;;4.22;1.85;;;;;;;-4.55;94.71;97984.53;5026615;28;20045;-56
2023/04/04 02:43:13;;;;;;;4.55;2.15;;;;;;;-4.52;94.29;97979.81;5028259;28;20052;-56
2023/04/04 02:45:41;;;;;;;6.40;2.00;;;;;;;-4.46;93.71;97989.81;5030246;28;20037;-54
2023/04/04 02:48:19;;;;;;;4.05;1.80;;;;;;;-4.65;93.33;97974.00;5024211;28;20053;-53
2023/04/04 02:50:48;;;;;;;2.22;1.40;;;;;;;-4.48;94.20;97980.38;5029589;28;20147;-57
2023/04/04 02:53:14;;;;;;;4.50;1.70;;;;;;;-4.42;94.20;97973.69;5033623;28;20044;-55
2023/04/04 02:55:42;;;;;;;3.72;1.50;;;;;;;-4.60;94.51;97967.28;5020115;28;20045;-55
2023/04/04 02:58:09;;;;;;;4.53;1.80;;;;;;;-4.60;94.26;97980.50;5029118;28;21227;-55
2023/04/04 03:00:35;;;;;;;4.60;2.10;;;;;;;-4.24;94.66;97977.25;5027608;28;20034;-54
2023/04/04 03:03:02;;;;;;;3.35;1.80;;;;;;;-4.40;93.28;97969.94;5026532;28;20084;-56
2023/04/04 03:05:33;;;;;;;4.10;2.10;;;;;;;-4.45;93.23;97974.81;5024754;28;20678;-56
2023/04/04 03:08:00;;;;;;;3.75;1.70;;;;;;;-4.54;92.90;97978.31;5011926;28;20111;-56
2023/04/04 03:10:31;;;;;;;3.53;1.85;;;;;;;-4.74;94.07;97971.22;5032428;28;20044;-55
2023/04/04 03:12:58;;;;;;;3.35;1.70;;;;;;;-4.73;94.40;97972.03;5035056;28;20052;-56
2023/04/04 03:15:26;;;;;;;3.80;1.88;;;;;;;-4.79;94.77;97973.41;5014242;28;20069;-57
2023/04/04 03:17:53;;;;;;;4.75;2.28;;;;;;;-4.86;94.83;97970.50;5020719;28;20052;-55
2023/04/04 03:20:25;;;;;;;3.40;1.52;;;;;;;-4.97;94.88;97968.81;5024847;28;20048;-53
2023/04/04 03:22:51;;;;;;;4.55;1.67;;;;;;;-5.15;95.46;97976.59;5028260;28;20793;-56
2023/04/04 03:25:18;;;;;;;3.50;1.77;;;;;;;-5.32;97.00;97975.44;5024134;28;20073;-56
2023/04/04 03:27:44;;;;;;;5.72;2.00;;;;;;;-5.33;97.14;97972.94;5031422;28;20049;-56
2023/04/04 03:30:18;;;;;;;6.80;2.70;;;;;;;-5.30;96.90;97970.03;5024426;28;20061;-57
2023/04/04 03:32:44;;;;;;;3.17;1.60;;;;;;;-5.24;96.71;97974.75;5029997;28;20053;-56
2023/04/04 03:35:11;;;;;;;4.10;2.25;;;;;;;-5.33;97.10;97970.31;5021509;28;20041;-55
2023/04/04 03:37:39;;;;;;;7.15;2.42;;;;;;;-5.07;97.63;97972.44;5037730;28;20033;-53
2023/04/04 03:40:06;;;;;;;7.15;2.33;;;;;;;-5.13;96.42;97966.72;5030793;28;20041;-56
2023/04/04 03:42:34;;;;;;;3.55;1.55;;;;;;;-5.27;96.81;97972.41;5027383;28;20095;-54
2023/04/04 03:45:06;;;;;;;3.22;2.05;;;;;;;-5.28;97.71;97968.94;5035008;28;20509;-54
2023/04/04 03:47:34;;;;;;;4.10;1.75;;;;;;;-5.35;97.19;97966.00;5035103;28;20610;-57
2023/04/04 03:50:01;;;;;;;3.47;2.10;;;;;;;-5.23;96.44;97965.91;5033527;28;20045;-56
2023/04/04 03:52:28;;;;;;;5.78;2.42;;;;;;;-5.12;98.64;97960.47;5038016;28;20057;-56
2023/04/04 03:54:55;;;;;;;5.03;2.65;;;;;;;-5.16;97.21;97967.00;5032694;28;20124;-57
2023/04/04 03:57:21;;;;;;;4.80;2.15;;;;;;;-5.20;97.17;97968.25;5039616;28;20504;-52
2023/04/04 03:59:47;;;;;;;8.48;2.17;;;;;;;-5.28;96.37;97970.72;5036570;28;20504;-55
2023/04/04 04:02:14;;;;;;;5.70;2.20;;;;;;;-5.26;98.52;97968.78;5026536;28;20504;-57
2023/04/04 04:04:40;;;;;;;8.32;2.10;;;;;;;-5.30;97.36;97968.25;5040193;28;20057;-58
2023/04/04 04:07:07;;;;;;;5.18;2.63;;;;;;;-5.42;98.08;97978.06;5031894;28;20068;-54
2023/04/04 04:09:34;;;;;;;4.88;2.30;;;;;;;-5.53;98.45;97976.38;5031995;28;20040;-54
2023/04/04 04:12:00;;;;;;;4.13;2.28;;;;;;;-5.41;98.14;97971.84;5016871;28;20042;-55
2023/04/04 04:14:27;;;;;;;7.53;2.60;;;;;;;-5.49;98.12;97971.66;5036386;28;20049;-57
2023/04/04 04:16:53;;;;;;;4.45;2.25;;;;;;;-5.38;97.25;97968.09;5029295;28;20551;-56
2023/04/04 04:19:21;;;;;;;6.55;2.17;;;;;;;-5.39;98.07;97977.81;5026658;28;20029;-57
2023/04/04 04:21:47;;;;;;;4.32;2.35;;;;;;;-5.36;97.94;97977.53;5042554;28;20632;-55
2023/04/04 04:24:15;;;;;;;3.75;2.20;;;;;;;-5.36;96.95;97974.06;5027698;28;20045;-57
2023/04/04 04:26:42;;;;;;;4.10;2.05;;;;;;;-5.57;97.67;97974.97;5032471;28;20428;-58
2023/04/04 04:29:10;;;;;;;5.38;2.33;;;;;;;-5.71;98.88;97984.09;5020149;28;20041;-56
2023/04/04 04:31:38;;;;;;;5.97;2.92;;;;;;;-5.64;98.75;97979.94;5027766;28;20041;-57
2023/04/04 04:34:07;;;;;;;5.78;2.60;;;;;;;-5.62;99.24;97985.09;5029656;28;20038;-55
2023/04/04 04:36:35;;;;;;;4.65;2.25;;;;;;;-5.61;98.16;97981.47;5037444;28;20676;-56
2023/04/04 04:39:21;;;;;;;4.68;1.80;;;;;;;-5.72;98.37;97981.59;5027381;28;20083;-57
2023/04/04 04:42:11;;;;;;;4.32;2.22;;;;;;;-5.73;98.88;97980.75;5017406;28;20421;-56
2023/04/04 04:44:45;;;;;;;4.38;1.95;;;;;;;-5.59;99.11;97979.56;5027831;28;20733;-57
2023/04/04 04:47:12;;;;;;;4.90;2.45;;;;;;;-5.67;98.27;97982.88;5025877;28;20601;-57
2023/04/04 04:49:39;;;;;;;4.05;2.30;;;;;;;-5.79;98.45;97984.75;5029679;28;20052;-57
2023/04/04 04:52:08;;;;;;;4.45;2.20;;;;;;;-5.79;99.13;97978.66;5023731;28;20128;-54
2023/04/04 04:54:36;;;;;;;5.50;2.75;;;;;;;-5.76;99.36;97979.22;5023034;28;20045;-56
2023/04/04 04:57:03;;;;;;;9.60;3.15;;;;;;;-5.75;99.11;97970.31;5032989;28;20100;-52
2023/04/04 04:59:29;;;;;;;5.15;2.58;;;;;;;-5.80;98.19;97975.16;5021778;28;20033;-55
2023/04/04 05:01:58;;;;;;;5.22;2.78;;;;;;;-5.94;99.28;97976.34;5024061;28;20052;-58
2023/04/04 05:04:26;;;;;;;4.78;2.83;;;;;;;-6.00;100.00;97982.16;5022803;28;20056;-56
2023/04/04 05:07:00;;;;;;;9.77;2.85;;;;;;;-5.62;100.00;97979.81;5021690;28;20096;-57
2023/04/04 05:09:26;;;;;;;10.43;3.10;;;;;;;-5.80;99.05;97983.09;5035671;28;20155;-54
2023/04/04 05:11:53;;;;;;;5.03;3.17;;;;;;;-5.70;98.30;97985.75;5032603;28;20056;-55
2023/04/04 05:14:24;;;;;;;9.82;3.22;;;;;;;-5.71;99.49;97984.09;5027257;28;20041;-56
2023/04/04 05:16:55;;;;;;;7.07;3.80;;;;;;;-5.90;99.27;97987.50;5036882;28;20045;-54
2023/04/04 05:19:26;;;;;;;6.10;3.15;;;;;;;-5.97;100.00;97989.78;5036726;28;20056;-52
2023/04/04 05:21:55;;;;;;;6.35;3.28;;;;;;;-5.92;100.00;97989.41;5032150;28;20143;-56
2023/04/04 05:24:33;;;;;;;6.55;3.45;;;;;;;-5.83;99.93;97993.06;5030345;28;20092;-58
2023/04/04 05:27:00;;;;;;;7.13;3.40;;;;;;;-5.84;99.69;97994.88;5029427;28;20413;-57
2023/04/04 05:29:32;;;;;;;5.20;3.08;;;;;;;-5.90;99.77;98003.31;5035959;28;20552;-57
2023/04/04 05:32:00;;;;;;;10.23;3.13;;;;;;;-5.58;100.00;97996.19;5033064;28;20045;-58
2023/04/04 05:34:27;;;;;;;5.07;2.97;;;;;;;-5.53;98.77;97996.66;5026625;28;20045;-57
2023/04/04 05:36:55;;;;;;;8.02;3.33;;;;;;;-5.41;98.56;98000.03;5027126;28;20037;-57
2023/04/04 05:39:22;;;;;;;6.43;2.47;;;;;;;-5.44;97.81;98000.28;5034681;28;20512;-56
2023/04/04 05:41:58;;;;;;;8.70;3.80;;;;;;;-5.40;100.00;97999.91;5032723;28;20049;-57
2023/04/04 05:44:27;;;;;;;5.72;3.08;;;;;;;-5.26;98.13;98003.13;5026215;28;20041;-57
2023/04/04 05:46:55;;;;;;;5.93;3.28;;;;;;;-5.32;98.21;98001.84;5032597;28;20088;-58
2023/04/04 05:49:22;;;;;;;6.85;4.03;;;;;;;-5.35;98.90;98008.25;5033464;28;20520;-56
2023/04/04 05:52:00;;;;;;;6.47;3.30;;;;;;;-5.20;98.76;98005.19;5032049;28;20052;-55
2023/04/04 05:54:27;;;;;;;8.43;3.90;;;;;;;-5.21;98.88;98006.19;5018977;28;20069;-55
2023/04/04 05:56:55;;;;;;;8.93;3.40;;;;;;;-5.09;99.52;98001.63;5033553;28;20055;-56
2023/04/04 05:59:38;;;;;;;5.80;3.13;;;;;;;-4.88;99.34;98001.53;5020652;28;20045;-56
2023/04/04 06:02:08;;;;;;;6.75;3.63;;;;;;;-4.59;98.52;98000.69;5027219;28;20045;-54
2023/04/04 06:04:39;;;;;;;5.88;3.90;;;;;;;-4.51;96.43;98001.78;5030796;28;20539;-55
2023/04/04 06:07:08;;;;;;;8.52;3.63;;;;;;;-4.42;96.29;98003.63;5024171;28;20076;-58
2023/04/04 06:09:35;;;;;;;8.98;4.00;;;;;;;-4.28;96.06;98004.16;5026155;28;20044;-58
2023/04/04 06:12:03;;;;;;;7.32;3.40;;;;;;;-4.11;95.87;98002.56;5027242;28;20048;-57
2023/04/04 06:14:31;;;;;;;9.85;3.70;;;;;;;-3.84;95.64;98001.81;5032164;28;20497;-55
2023/04/04 06:16:59;;;;;;;9.82;3.90;;;;;;;-3.64;93.51;98003.56;5032195;28;20667;-58
2023/04/04 06:19:26;;;;;;;5.80;2.70;;;;;;;-3.38;92.46;98006.38;5032545;28;20607;-57
2023/04/04 06:21:53;;;;;;;6.90;3.35;;;;;;;-3.09;89.35;98007.19;5025807;28;20088;-57
2023/04/04 06:24:19;;;;;;;6.55;3.72;;;;;;;-2.87;89.01;98008.59;5031094;28;20071;-54
2023/04/04 06:26:50;;;;;;;5.60;3.25;;;;;;;-2.73;85.90;97999.28;5030883;28;20057;-56
2023/04/04 06:29:18;;;;;;;6.63;3.28;;;;;;;-2.55;84.74;98001.94;5028488;28;20060;-57
2023/04/04 06:31:44;;;;;;;5.00;2.80;;;;;;;-2.41;82.79;98007.66;5019432;28;20629;-56
2023/04/04 06:34:20;;;;;;;7.18;3.28;;;;;;;-2.30;80.99;98002.13;5026422;28;20049;-57
2023/04/04 06:36:53;;;;;;;5.28;2.90;;;;;;;-2.16;80.91;98000.75;5033415;28;20063;-55
2023/04/04 06:39:22;;;;;;;5.85;2.90;;;;;;;-2.14;79.73;98005.91;5034581;28;20056;-55
2023/04/04 06:41:51;;;;;;;5.15;2.97;;;;;;;-2.00;80.29;98000.03;5034738;28;20126;-54
2023/04/04 06:44:23;;;;;;;4.30;2.72;;;;;;;-1.93;79.49;98002.88;5029389;28;20548;-56
2023/04/04 06:46:50;;;;;;;5.03;3.03;;;;;;;-1.83;79.28;98000.94;5035240;28;20053;-55
2023/04/04 06:49:16;;;;;;;5.75;3.30;;;;;;;-1.78;78.61;97997.84;5029725;28;20613;-55
2023/04/04 06:51:43;;;;;;;5.57;2.83;;;;;;;-1.60;77.87;97995.13;5028738;28;20038;-57
2023/04/04 06:54:10;;;;;;;5.82;3.22;;;;;;;-1.60;76.34;97992.47;5020221;28;20046;-55
2023/04/04 06:56:36;;;;;;;5.88;2.67;;;;;;;-1.50;76.77;97994.16;5027547;28;20224;-57
2023/04/04 06:59:03;;;;;;;4.53;3.05;;;;;;;-1.46;75.30;97991.03;5034888;28;20052;-54
2023/04/04 07:01:32;;;;;;;6.97;3.13;;;;;;;-1.35;75.31;97991.72;5024117;28;20044;-53
2023/04/04 07:03:59;;;;;;;8.82;3.13;;;;;;;-1.24;74.36;98001.25;5025089;28;20068;-57
2023/04/04 07:06:28;;;;;;;6.88;2.70;;;;;;;-1.06;73.86;97996.63;5028329;28;20048;-57
2023/04/04 07:08:55;;;;;;;7.55;2.92;;;;;;;-1.03;72.83;97986.69;5027953;28;20566;-58
2023/04/04 07:11:25;;;;;;;6.03;2.95;;;;;;;-0.92;72.60;97991.72;5025625;28;20088;-56
2023/04/04 07:13:52;;;;;;;6.23;3.33;;;;;;;-0.82;71.30;97991.53;5023901;28;20045;-54
2023/04/04 07:16:19;;;;;;;6.25;3.08;;;;;;;-0.73;70.94;97993.25;5018326;28;20103;-56
2023/04/04 07:18:45;;;;;;;5.25;3.17;;;;;;;-0.68;70.95;97996.25;5019853;28;20208;-56
2023/04/04 07:21:12;;;;;;;5.93;3.22;;;;;;;-0.56;71.30;97990.56;5023884;28;20128;-51
2023/04/04 07:23:38;;;;;;;6.15;3.05;;;;;;;-0.43;69.39;97992.75;5022283;28;20735;-46
2023/04/04 07:26:05;;;;;;;8.23;3.00;;;;;;;-0.27;68.75;97991.91;5021928;28;20736;-51
2023/04/04 07:28:32;;;;;;;5.47;3.35;;;;;;;-0.23;68.35;97997.75;5024312;28;20075;-53
2023/04/04 07:31:00;;;;;;;4.63;2.53;;;;;;;-0.18;66.56;97995.44;5013724;28;20108;-49
2023/04/04 07:33:27;;;;;;;5.20;2.72;;;;;;;-0.10;66.94;97987.44;5029546;28;20447;-52
2023/04/04 07:35:53;;;;;;;6.82;2.70;;;;;;;0.17;65.80;97995.19;5027370;28;20073;-52
2023/04/04 07:38:20;;;;;;;5.38;2.55;;;;;;;0.31;63.88;97996.34;5025189;28;20069;-53
2023/04/04 07:40:48;;;;;;;6.15;2.80;;;;;;;0.56;65.14;97993.59;4986955;28;20508;-55
2023/04/04 07:43:15;;;;;;;7.07;3.42;;;;;;;0.64;62.95;97991.75;5023157;28;20695;-51
2023/04/04 07:45:42;;;;;;;3.95;2.33;;;;;;;0.98;62.55;97996.91;5013105;28;20733;-57
2023/04/04 07:48:08;;;;;;;6.05;3.03;;;;;;;0.87;61.36;97990.13;4997524;28;20496;-51
2023/04/04 07:50:35;;;;;;;5.40;2.58;;;;;;;0.92;60.08;97998.44;5008805;28;20128;-52
2023/04/04 07:53:01;;;;;;;5.45;2.60;;;;;;;0.95;59.53;98000.75;4993704;28;20485;-56
2023/04/04 07:55:28;;;;;;;4.47;2.88;;;;;;;0.67;60.35;97995.06;4999332;28;20050;-54
2023/04/04 07:57:55;;;;;;;5.35;2.50;;;;;;;0.56;61.28;97997.13;5011669;28;20060;-56
2023/04/04 08:00:24;;;;;;;5.03;2.33;;;;;;;0.55;61.55;97992.75;5020092;28;20129;-52
2023/04/04 08:02:52;;;;;;;4.57;2.55;;;;;;;0.54;60.75;97992.94;5011109;28;20042;-58
2023/04/04 08:05:19;;;;;;;6.25;2.72;;;;;;;0.62;61.26;97991.06;5005817;28;20048;-58
2023/04/04 08:07:46;;;;;;;6.25;2.58;;;;;;;0.64;60.49;97986.44;4972248;28;20760;-57
2023/04/04 08:10:16;;;;;;;5.88;3.00;;;;;;;0.46;59.80;97993.78;5018333;28;20080;-56
2023/04/04 08:12:43;;;;;;;5.30;2.85;;;;;;;0.48;59.83;97987.28;5019122;28;20037;-57
2023/04/04 08:15:11;;;;;;;5.50;2.70;;;;;;;0.61;60.46;97983.25;5028117;28;20041;-54
2023/04/04 08:17:37;;;;;;;5.55;2.70;;;;;;;0.54;60.24;97985.78;5002435;28;21072;-56
2023/04/04 08:20:05;;;;;;;4.82;2.90;;;;;;;0.57;59.31;97990.78;4995981;28;20049;-58
2023/04/04 08:22:32;;;;;;;5.72;2.53;;;;;;;0.76;58.99;97984.19;5020965;28;20040;-58
2023/04/04 08:24:59;;;;;;;6.20;2.40;;;;;;;0.89;59.07;97986.28;5030751;28;20041;-57
2023/04/04 08:27:26;;;;;;;4.53;2.80;;;;;;;0.93;58.34;97983.28;5022802;28;20037;-58
2023/04/04 08:29:52;;;;;;;10.93;3.15;;;;;;;0.97;58.74;97982.78;5033696;28;20120;-55
2023/04/04 08:32:19;;;;;;;5.28;2.80;;;;;;;0.96;58.47;97986.41;5031253;28;20041;-56
2023/04/04 08:34:46;;;;;;;5.10;2.80;;;;;;;0.96;58.25;97977.59;5027902;28;20099;-57
2023/04/04 08:37:13;;;;;;;5.57;2.70;;;;;;;1.11;58.56;97978.50;5030417;28;20046;-56
2023/04/04 08:39:40;;;;;;;4.35;2.15;;;;;;;1.24;57.75;97979.75;5031883;28;20393;-56
2023/04/04 08:42:06;;;;;;;6.45;2.47;;;;;;;1.38;57.53;97970.16;5028975;28;20160;-57
2023/04/04 08:44:34;;;;;;;6.28;2.72;;;;;;;1.41;56.51;97977.81;5032294;28;20065;-58
2023/04/04 08:47:04;;;;;;;7.55;3.08;;;;;;;1.50;56.58;97975.91;5030424;28;20049;-56
2023/04/04 08:49:42;;;;;;;5.70;2.53;;;;;;;1.71;56.75;97975.25;5026068;28;20532;-56
2023/04/04 08:52:11;;;;;;;5.40;2.53;;;;;;;1.58;55.38;97983.84;5030588;28;20069;-55
2023/04/04 08:54:40;;;;;;;5.30;2.40;;;;;;;1.76;56.07;97983.56;5026825;28;20046;-57
2023/04/04 08:57:07;;;;;;;4.57;2.70;;;;;;;1.89;55.76;97980.28;5026678;28;20301;-58
2023/04/04 08:59:34;;;;;;;7.10;2.33;;;;;;;1.90;55.35;97979.25;5027190;28;20041;-57
2023/04/04 09:02:14;;;;;;;5.05;2.40;;;;;;;1.99;53.65;97981.84;5025090;28;20044;-59
2023/04/04 09:04:43;;;;;;;8.18;2.13;;;;;;;2.06;54.17;97982.78;5028719;28;20116;-57
2023/04/04 09:07:24;;;;;;;4.80;2.50;;;;;;;2.27;53.06;97979.41;5030927;28;20037;-59
2023/04/04 09:09:53;;;;;;;4.30;2.30;;;;;;;2.45;53.86;97980.88;5021093;28;20566;-59
2023/04/04 09:12:21;;;;;;;4.80;2.50;;;;;;;2.48;53.36;97983.19;5026781;28;20103;-58
2023/04/04 09:14:50;;;;;;;6.40;2.65;;;;;;;2.25;53.54;97983.28;5027457;28;20048;-59
2023/04/04 09:17:17;;;;;;;4.93;2.35;;;;;;;1.87;52.58;97989.47;5026633;28;20116;-59
2023/04/04 09:19:44;;;;;;;4.20;2.30;;;;;;;2.01;53.04;97983.34;5030551;28;20043;-58
2023/04/04 09:22:11;;;;;;;6.90;2.47;;;;;;;2.07;52.86;97979.94;5027022;28;20072;-56
2023/04/04 09:24:39;;;;;;;3.78;2.38;;;;;;;2.17;53.73;97979.66;5025483;28;20053;-58
2023/04/04 09:27:09;;;;;;;5.43;2.65;;;;;;;2.17;52.46;97979.66;5020581;28;20065;-59
2023/04/04 09:29:40;;;;;;;6.43;2.83;;;;;;;2.13;52.37;97978.38;5020941;28;20042;-59
2023/04/04 09:32:08;;;;;;;6.10;2.38;;;;;;;2.43;53.21;97983.72;5027016;28;20049;-56
2023/04/04 09:34:36;;;;;;;5.90;2.50;;;;;;;2.70;51.21;97983.28;5031082;28;20092;-58
2023/04/04 09:37:04;;;;;;;4.78;2.08;;;;;;;2.77;50.65;97978.84;5031656;28;20049;-58
2023/04/04 09:39:37;;;;;;;6.38;2.60;;;;;;;2.54;50.72;97985.13;5032933;28;20037;-56
2023/04/04 09:42:06;;;;;;;6.95;2.70;;;;;;;2.54;51.52;97985.13;5024610;28;20075;-57
2023/04/04 09:44:35;;;;;;;10.10;2.83;;;;;;;2.86;51.54;97976.88;5024899;28;20053;-58
2023/04/04 09:47:22;;;;;;;4.32;2.80;;;;;;;3.02;50.34;97973.16;5030813;28;20045;-58
2023/04/04 09:49:59;;;;;;;6.88;2.20;;;;;;;2.76;50.24;97971.81;5025360;28;20167;-58
2023/04/04 09:52:26;;;;;;;4.85;2.55;;;;;;;2.98;50.70;97975.38;5031383;28;20065;-57
2023/04/04 09:55:00;;;;;;;5.70;2.25;;;;;;;2.72;48.88;97974.03;5028834;28;20060;-58
2023/04/04 09:57:33;;;;;;;4.40;2.10;;;;;;;2.99;50.67;97976.22;5024109;28;20080;-58
2023/04/04 10:00:02;;;;;;;4.57;2.22;;;;;;;3.00;49.73;97985.91;5033728;28;20107;-59
2023/04/04 10:02:36;;;;;;;5.80;2.15;;;;;;;3.19;49.27;97989.81;5027665;28;20114;-58
2023/04/04 10:05:04;;;;;;;5.85;2.72;;;;;;;3.15;49.65;97983.19;5029005;28;20519;-57
2023/04/04 10:07:32;;;;;;;4.32;2.00;;;;;;;3.15;50.05;97975.16;5009134;28;20053;-60
2023/04/04 10:10:04;;;;;;;6.88;2.65;;;;;;;2.84;47.58;97976.25;5019066;28;20046;-57
2023/04/04 10:12:31;;;;;;;5.00;2.25;;;;;;;2.93;48.22;97975.13;5027393;28;20046;-59
2023/04/04 10:14:59;;;;;;;5.85;3.00;;;;;;;2.90;48.01;97980.00;5016450;28;20657;-58
2023/04/04 10:17:46;;;;;;;4.25;2.30;;;;;;;2.89;48.27;97971.16;5030755;28;20099;-58
2023/04/04 10:20:13;;;;;;;3.60;2.00;;;;;;;2.96;48.46;97968.56;5026052;28;20501;-58
2023/04/04 10:22:42;;;;;;;5.50;2.38;;;;;;;3.11;48.23;97972.03;5017264;28;20056;-56
2023/04/04 10:25:10;;;;;;;5.03;2.30;;;;;;;3.31;48.17;97978.63;5035585;28;20120;-57
2023/04/04 10:27:37;;;;;;;4.22;2.15;;;;;;;3.46;47.55;97981.25;5031017;28;20172;-58
2023/04/04 10:30:05;;;;;;;4.07;2.58;;;;;;;3.46;47.23;97963.31;5025406;28;20489;-57
2023/04/04 10:32:50;;;;;;;4.82;2.20;;;;;;;3.52;48.02;97967.09;5022278;28;20049;-59
2023/04/04 10:35:21;;;;;;;4.72;2.10;;;;;;;3.61;48.18;97965.13;5025342;28;20053;-57
2023/04/04 10:37:58;;;;;;;5.25;2.08;;;;;;;3.68;47.29;97957.16;5033942;28;20484;-59
2023/04/04 10:40:31;;;;;;;4.43;2.60;;;;;;;3.54;46.59;97962.34;5000601;28;20049;-60
2023/04/04 10:43:01;;;;;;;6.60;2.67;;;;;;;3.47;47.10;97959.63;5023681;28;20663;-59
2023/04/04 10:45:30;;;;;;;5.95;3.03;;;;;;;3.63;46.39;97965.75;5028675;28;20108;-57
2023/04/04 10:47:58;;;;;;;4.93;2.20;;;;;;;3.74;46.27;97961.72;5019472;28;20128;-57
2023/04/04 10:50:25;;;;;;;4.95;2.40;;;;;;;3.88;46.72;97959.97;5032092;28;20445;-60
2023/04/04 10:52:57;;;;;;;4.05;2.42;;;;;;;3.70;47.03;97961.28;5025704;28;20077;-56
2023/04/04 10:55:23;;;;;;;4.82;2.22;;;;;;;3.75;47.46;97971.41;5018061;28;20139;-58
2023/04/04 10:57:54;;;;;;;5.32;2.45;;;;;;;3.65;46.79;97958.34;5021634;28;20079;-58
2023/04/04 11:00:25;;;;;;;5.95;2.85;;;;;;;3.73;47.22;97963.56;5034924;28;20037;-58
2023/04/04 11:02:51;;;;;;;6.22;2.75;;;;;;;3.77;47.28;97962.13;5027827;28;20064;-59
2023/04/04 11:05:33;;;;;;;6.03;2.67;;;;;;;3.79;47.18;97953.91;5023016;28;20075;-58
2023/04/04 11:08:01;;;;;;;5.38;2.65;;;;;;;3.95;47.67;97957.34;5011984;28;20049;-57
2023/04/04 11:10:36;;;;;;;5.10;2.15;;;;;;;4.22;46.57;97955.69;5028883;28;20037;-60
2023/04/04 11:13:17;;;;;;;5.75;2.40;;;;;;;4.14;45.87;97948.63;5023838;28;20090;-58
2023/04/04 11:15:50;;;;;;;7.20;2.55;;;;;;;4.20;45.92;97949.69;5026005;28;20053;-56
2023/04/04 11:18:19;;;;;;;4.10;2.35;;;;;;;4.19;45.05;97948.03;5027785;28;20101;-57
2023/04/04 11:21:02;;;;;;;;;;;;;;;4.47;44.05;97952.53;5023653;28;20042;-59
2023/04/04 11:23:58;;;;;;;6.35;2.80;;;;;;;4.13;45.08;97944.28;5021723;28;19929;-59
2023/04/04 11:26:25;;;;;;;4.63;2.40;;;;;;;4.52;45.22;97944.72;5025107;28;20470;-57
2023/04/04 11:28:51;;;;;;;4.65;2.42;;;;;;;4.46;44.29;97940.13;5023351;28;20049;-56
2023/04/04 11:31:18;;;;;;;4.30;2.42;;;;;;;4.40;44.80;97936.41;5022730;28;20037;-58
2023/04/04 11:34:07;;;;;;;6.68;2.90;;;;;;;4.36;44.70;97939.66;5021467;28;20570;-59
2023/04/04 11:36:36;;;;;;;5.78;3.05;;;;;;;4.22;45.12;97936.91;5028801;28;20045;-57
2023/04/04 11:39:06;;;;;;;5.68;2.53;;;;;;;4.68;44.37;97937.34;5026598;28;20515;-58
2023/04/04 11:42:02;;;;;;;5.75;2.95;;;;;;;4.68;44.79;97934.66;5026753;28;20034;-57
2023/04/04 11:44:31;;;;;;;5.35;2.63;;;;;;;4.75;45.07;97932.03;5028600;28;20095;-57
2023/04/04 11:47:08;;;;;;;5.50;2.88;;;;;;;4.88;44.07;97933.91;5023704;28;20038;-56